sensor_id;sensor_type;location;lat;lon;timestamp;temperature;humidity
65995;HTU21D;52764;51.036;5.852;2023-09-19T00:01:23;18.38;69.43
65995;HTU21D;52764;51.036;5.852;2023-09-19T00:03:49;18.30;69.81
65995;HTU21D;52764;51.036;5.852;2023-09-19T00:06:15;18.27;69.88
65995;HTU21D;52764;51.036;5.852;2023-09-19T00:08:41;18.18;70.16
65995;HTU21D;52764;51.036;5.852;2023-09-19T00:11:10;18.17;70.29
65995;HTU21D;52764;51.036;5.852;2023-09-19T00:13:37;18.18;70.37
65995;HTU21D;52764;51.036;5.852;2023-09-19T00:16:09;18.18;70.50
65995;HTU21D;52764;51.036;5.852;2023-09-19T00:18:37;18.17;70.51
65995;HTU21D;52764;51.036;5.852;2023-09-19T00:21:03;18.14;70.50
65995;HTU21D;52764;51.036;5.852;2023-09-19T00:23:32;18.13;70.55
65995;HTU21D;52764;51.036;5.852;2023-09-19T00:26:01;18.12;70.66
65995;HTU21D;52764;51.036;5.852;2023-09-19T00:28:27;18.12;70.71
65995;HTU21D;52764;51.036;5.852;2023-09-19T00:30:55;18.08;70.75
65995;HTU21D;52764;51.036;5.852;2023-09-19T00:33:22;18.02;70.87
65995;HTU21D;52764;51.036;5.852;2023-09-19T00:35:51;18.05;70.95
65995;HTU21D;52764;51.036;5.852;2023-09-19T00:38:18;18.04;71.02
65995;HTU21D;52764;51.036;5.852;2023-09-19T00:40:48;18.04;71.05
65995;HTU21D;52764;51.036;5.852;2023-09-19T00:43:13;18.03;71.19
65995;HTU21D;52764;51.036;5.852;2023-09-19T00:45:43;17.99;71.22
65995;HTU21D;52764;51.036;5.852;2023-09-19T00:48:09;17.97;71.38
65995;HTU21D;52764;51.036;5.852;2023-09-19T00:50:36;17.97;71.47
65995;HTU21D;52764;51.036;5.852;2023-09-19T00:53:02;17.93;71.56
65995;HTU21D;52764;51.036;5.852;2023-09-19T00:55:39;17.90;71.74
65995;HTU21D;52764;51.036;5.852;2023-09-19T00:58:07;17.85;71.88
65995;HTU21D;52764;51.036;5.852;2023-09-19T01:00:37;17.87;71.85
65995;HTU21D;52764;51.036;5.852;2023-09-19T01:03:03;17.83;71.90
65995;HTU21D;52764;51.036;5.852;2023-09-19T01:05:29;17.82;71.90
65995;HTU21D;52764;51.036;5.852;2023-09-19T01:07:57;17.82;71.84
65995;HTU21D;52764;51.036;5.852;2023-09-19T01:10:25;17.84;71.77
65995;HTU21D;52764;51.036;5.852;2023-09-19T01:18:35;17.91;71.37
65995;HTU21D;52764;51.036;5.852;2023-09-19T01:29:42;17.89;71.27
65995;HTU21D;52764;51.036;5.852;2023-09-19T01:32:12;17.87;71.26
65995;HTU21D;52764;51.036;5.852;2023-09-19T01:34:47;17.87;71.17
65995;HTU21D;52764;51.036;5.852;2023-09-19T01:37:19;17.85;71.19
65995;HTU21D;52764;51.036;5.852;2023-09-19T01:39:59;17.89;71.15
65995;HTU21D;52764;51.036;5.852;2023-09-19T01:45:59;17.83;70.82
65995;HTU21D;52764;51.036;5.852;2023-09-19T01:51:27;17.78;70.89
65995;HTU21D;52764;51.036;5.852;2023-09-19T01:54:09;17.76;71.02
65995;HTU21D;52764;51.036;5.852;2023-09-19T01:59:13;17.69;71.12
65995;HTU21D;52764;51.036;5.852;2023-09-19T02:01:45;17.73;70.92
65995;HTU21D;52764;51.036;5.852;2023-09-19T02:04:11;17.67;71.01
65995;HTU21D;52764;51.036;5.852;2023-09-19T02:06:41;17.65;70.95
65995;HTU21D;52764;51.036;5.852;2023-09-19T02:09:07;17.64;70.97
65995;HTU21D;52764;51.036;5.852;2023-09-19T02:11:35;17.61;70.93
65995;HTU21D;52764;51.036;5.852;2023-09-19T02:14:02;17.58;70.98
65995;HTU21D;52764;51.036;5.852;2023-09-19T02:16:29;17.58;70.94
65995;HTU21D;52764;51.036;5.852;2023-09-19T02:18:55;17.59;71.00
65995;HTU21D;52764;51.036;5.852;2023-09-19T02:21:21;17.60;71.03
65995;HTU21D;52764;51.036;5.852;2023-09-19T02:23:47;17.59;71.01
65995;HTU21D;52764;51.036;5.852;2023-09-19T02:26:13;17.59;71.03
65995;HTU21D;52764;51.036;5.852;2023-09-19T02:28:40;17.56;70.98
65995;HTU21D;52764;51.036;5.852;2023-09-19T02:31:08;17.55;70.94
65995;HTU21D;52764;51.036;5.852;2023-09-19T02:33:33;17.55;70.90
65995;HTU21D;52764;51.036;5.852;2023-09-19T02:36:01;17.55;70.93
65995;HTU21D;52764;51.036;5.852;2023-09-19T02:38:29;17.55;70.92
65995;HTU21D;52764;51.036;5.852;2023-09-19T02:40:55;17.55;70.92
65995;HTU21D;52764;51.036;5.852;2023-09-19T02:43:22;17.52;70.83
65995;HTU21D;52764;51.036;5.852;2023-09-19T02:45:48;17.53;70.80
65995;HTU21D;52764;51.036;5.852;2023-09-19T02:48:19;17.52;70.78
65995;HTU21D;52764;51.036;5.852;2023-09-19T02:50:54;17.50;70.77
65995;HTU21D;52764;51.036;5.852;2023-09-19T02:53:20;17.47;85.29
65995;HTU21D;52764;51.036;5.852;2023-09-19T02:55:47;17.48;70.87
65995;HTU21D;52764;51.036;5.852;2023-09-19T02:58:13;17.46;70.98
65995;HTU21D;52764;51.036;5.852;2023-09-19T03:00:40;17.45;70.92
65995;HTU21D;52764;51.036;5.852;2023-09-19T03:03:08;17.45;71.04
65995;HTU21D;52764;51.036;5.852;2023-09-19T03:05:34;17.44;71.06
65995;HTU21D;52764;51.036;5.852;2023-09-19T03:08:00;17.41;71.10
65995;HTU21D;52764;51.036;5.852;2023-09-19T03:10:27;17.40;71.27
65995;HTU21D;52764;51.036;5.852;2023-09-19T03:12:55;17.40;71.33
65995;HTU21D;52764;51.036;5.852;2023-09-19T03:15:21;17.41;71.42
65995;HTU21D;52764;51.036;5.852;2023-09-19T03:17:49;17.43;71.51
65995;HTU21D;52764;51.036;5.852;2023-09-19T03:20:19;17.45;71.48
65995;HTU21D;52764;51.036;5.852;2023-09-19T03:22:47;17.46;71.42
65995;HTU21D;52764;51.036;5.852;2023-09-19T03:25:15;17.46;71.33
65995;HTU21D;52764;51.036;5.852;2023-09-19T03:27:44;17.45;71.35
65995;HTU21D;52764;51.036;5.852;2023-09-19T03:30:11;17.45;71.22
65995;HTU21D;52764;51.036;5.852;2023-09-19T03:32:45;17.38;71.38
65995;HTU21D;52764;51.036;5.852;2023-09-19T03:35:11;17.35;71.54
65995;HTU21D;52764;51.036;5.852;2023-09-19T03:37:43;17.35;71.64
65995;HTU21D;52764;51.036;5.852;2023-09-19T03:40:10;17.30;71.72
65995;HTU21D;52764;51.036;5.852;2023-09-19T03:42:41;17.30;71.70
65995;HTU21D;52764;51.036;5.852;2023-09-19T03:45:09;17.32;71.58
65995;HTU21D;52764;51.036;5.852;2023-09-19T03:47:39;17.32;71.45
65995;HTU21D;52764;51.036;5.852;2023-09-19T03:50:06;17.31;71.40
65995;HTU21D;52764;51.036;5.852;2023-09-19T03:52:37;17.28;71.38
65995;HTU21D;52764;51.036;5.852;2023-09-19T03:55:03;17.28;71.29
65995;HTU21D;52764;51.036;5.852;2023-09-19T03:57:30;17.28;71.20
65995;HTU21D;52764;51.036;5.852;2023-09-19T03:59:55;17.28;71.06
65995;HTU21D;52764;51.036;5.852;2023-09-19T04:02:22;17.31;70.76
65995;HTU21D;52764;51.036;5.852;2023-09-19T04:04:50;17.28;70.68
65995;HTU21D;52764;51.036;5.852;2023-09-19T04:07:16;17.25;70.58
65995;HTU21D;52764;51.036;5.852;2023-09-19T04:09:42;17.24;70.42
65995;HTU21D;52764;51.036;5.852;2023-09-19T04:12:08;17.23;70.33
65995;HTU21D;52764;51.036;5.852;2023-09-19T04:14:37;17.25;70.35
65995;HTU21D;52764;51.036;5.852;2023-09-19T04:17:04;17.30;70.15
65995;HTU21D;52764;51.036;5.852;2023-09-19T04:19:31;17.33;69.99
65995;HTU21D;52764;51.036;5.852;2023-09-19T04:21:57;17.34;69.70
65995;HTU21D;52764;51.036;5.852;2023-09-19T04:24:22;17.03;69.36
65995;HTU21D;52764;51.036;5.852;2023-09-19T04:26:48;17.36;69.26
65995;HTU21D;52764;51.036;5.852;2023-09-19T04:29:14;17.36;69.16
65995;HTU21D;52764;51.036;5.852;2023-09-19T04:31:40;17.37;69.00
65995;HTU21D;52764;51.036;5.852;2023-09-19T04:34:09;17.36;68.95
65995;HTU21D;52764;51.036;5.852;2023-09-19T04:36:35;17.38;68.83
65995;HTU21D;52764;51.036;5.852;2023-09-19T04:39:03;17.41;68.65
65995;HTU21D;52764;51.036;5.852;2023-09-19T04:41:32;17.41;68.58
65995;HTU21D;52764;51.036;5.852;2023-09-19T04:43:59;17.41;68.65
65995;HTU21D;52764;51.036;5.852;2023-09-19T04:46:25;17.47;68.39
65995;HTU21D;52764;51.036;5.852;2023-09-19T04:48:51;17.48;68.20
65995;HTU21D;52764;51.036;5.852;2023-09-19T04:51:17;17.48;68.05
65995;HTU21D;52764;51.036;5.852;2023-09-19T04:53:44;17.44;68.22
65995;HTU21D;52764;51.036;5.852;2023-09-19T04:56:10;17.39;68.38
65995;HTU21D;52764;51.036;5.852;2023-09-19T04:58:35;17.38;68.50
65995;HTU21D;52764;51.036;5.852;2023-09-19T05:01:01;17.41;68.55
65995;HTU21D;52764;51.036;5.852;2023-09-19T05:03:28;17.40;68.56
65995;HTU21D;52764;51.036;5.852;2023-09-19T05:05:54;17.36;68.67
65995;HTU21D;52764;51.036;5.852;2023-09-19T05:08:20;17.34;68.82
65995;HTU21D;52764;51.036;5.852;2023-09-19T05:10:47;17.36;68.91
65995;HTU21D;52764;51.036;5.852;2023-09-19T05:13:14;17.37;68.93
65995;HTU21D;52764;51.036;5.852;2023-09-19T05:15:40;17.39;68.98
65995;HTU21D;52764;51.036;5.852;2023-09-19T05:18:06;17.37;69.35
65995;HTU21D;52764;51.036;5.852;2023-09-19T05:20:32;17.38;69.46
65995;HTU21D;52764;51.036;5.852;2023-09-19T05:23:01;17.40;69.29
65995;HTU21D;52764;51.036;5.852;2023-09-19T05:25:29;17.41;69.17
65995;HTU21D;52764;51.036;5.852;2023-09-19T05:27:57;17.39;69.23
65995;HTU21D;52764;51.036;5.852;2023-09-19T05:30:24;17.40;69.39
65995;HTU21D;52764;51.036;5.852;2023-09-19T05:32:50;17.39;69.44
65995;HTU21D;52764;51.036;5.852;2023-09-19T05:35:16;17.41;69.56
65995;HTU21D;52764;51.036;5.852;2023-09-19T05:37:42;17.44;69.56
65995;HTU21D;52764;51.036;5.852;2023-09-19T05:40:08;17.46;69.65
65995;HTU21D;52764;51.036;5.852;2023-09-19T05:42:38;17.45;69.71
65995;HTU21D;52764;51.036;5.852;2023-09-19T05:45:05;17.51;69.75
65995;HTU21D;52764;51.036;5.852;2023-09-19T05:47:32;17.53;69.62
65995;HTU21D;52764;51.036;5.852;2023-09-19T05:49:58;17.55;69.54
65995;HTU21D;52764;51.036;5.852;2023-09-19T05:52:25;17.59;69.52
65995;HTU21D;52764;51.036;5.852;2023-09-19T05:54:50;17.61;69.58
65995;HTU21D;52764;51.036;5.852;2023-09-19T05:57:16;17.63;69.48
65995;HTU21D;52764;51.036;5.852;2023-09-19T05:59:42;17.66;69.36
65995;HTU21D;52764;51.036;5.852;2023-09-19T06:02:08;17.72;69.07
65995;HTU21D;52764;51.036;5.852;2023-09-19T06:04:35;17.64;69.37
65995;HTU21D;52764;51.036;5.852;2023-09-19T06:07:01;17.62;69.53
65995;HTU21D;52764;51.036;5.852;2023-09-19T06:09:29;17.67;69.49
65995;HTU21D;52764;51.036;5.852;2023-09-19T06:11:58;17.66;69.46
65995;HTU21D;52764;51.036;5.852;2023-09-19T06:14:25;17.68;69.35
65995;HTU21D;52764;51.036;5.852;2023-09-19T06:16:51;17.70;69.30
65995;HTU21D;52764;51.036;5.852;2023-09-19T06:19:20;17.76;69.25
65995;HTU21D;52764;51.036;5.852;2023-09-19T06:21:49;17.84;69.00
65995;HTU21D;52764;51.036;5.852;2023-09-19T06:24:14;17.92;68.86
65995;HTU21D;52764;51.036;5.852;2023-09-19T06:26:40;17.98;68.64
65995;HTU21D;52764;51.036;5.852;2023-09-19T06:29:06;18.06;68.52
65995;HTU21D;52764;51.036;5.852;2023-09-19T06:31:33;18.12;68.20
65995;HTU21D;52764;51.036;5.852;2023-09-19T06:33:59;18.13;68.10
65995;HTU21D;52764;51.036;5.852;2023-09-19T06:36:25;18.19;67.96
65995;HTU21D;52764;51.036;5.852;2023-09-19T06:38:50;18.26;67.95
65995;HTU21D;52764;51.036;5.852;2023-09-19T06:41:19;18.37;67.74
65995;HTU21D;52764;51.036;5.852;2023-09-19T06:43:46;18.47;67.57
65995;HTU21D;52764;51.036;5.852;2023-09-19T06:46:12;18.57;67.17
65995;HTU21D;52764;51.036;5.852;2023-09-19T06:48:38;18.62;66.89
65995;HTU21D;52764;51.036;5.852;2023-09-19T06:51:04;18.65;66.73
65995;HTU21D;52764;51.036;5.852;2023-09-19T06:53:34;18.72;66.49
65995;HTU21D;52764;51.036;5.852;2023-09-19T06:56:01;18.82;66.28
65995;HTU21D;52764;51.036;5.852;2023-09-19T06:58:27;18.93;65.98
65995;HTU21D;52764;51.036;5.852;2023-09-19T07:00:53;19.07;65.57
65995;HTU21D;52764;51.036;5.852;2023-09-19T07:03:20;19.26;65.23
65995;HTU21D;52764;51.036;5.852;2023-09-19T07:05:49;19.43;64.63
65995;HTU21D;52764;51.036;5.852;2023-09-19T07:08:15;19.55;64.23
65995;HTU21D;52764;51.036;5.852;2023-09-19T07:10:42;19.68;63.98
65995;HTU21D;52764;51.036;5.852;2023-09-19T07:13:15;19.89;63.41
65995;HTU21D;52764;51.036;5.852;2023-09-19T07:15:44;20.14;62.84
65995;HTU21D;52764;51.036;5.852;2023-09-19T07:18:14;20.45;62.36
65995;HTU21D;52764;51.036;5.852;2023-09-19T07:20:42;20.77;61.22
65995;HTU21D;52764;51.036;5.852;2023-09-19T07:23:15;21.03;60.27
65995;HTU21D;52764;51.036;5.852;2023-09-19T07:25:42;21.19;59.71
65995;HTU21D;52764;51.036;5.852;2023-09-19T07:28:07;22.82;59.25
65995;HTU21D;52764;51.036;5.852;2023-09-19T07:30:36;21.52;58.86
65995;HTU21D;52764;51.036;5.852;2023-09-19T07:33:03;21.74;58.32
65995;HTU21D;52764;51.036;5.852;2023-09-19T07:35:29;21.83;57.77
65995;HTU21D;52764;51.036;5.852;2023-09-19T07:37:55;21.93;57.47
65995;HTU21D;52764;51.036;5.852;2023-09-19T07:40:22;22.03;56.99
65995;HTU21D;52764;51.036;5.852;2023-09-19T07:42:49;22.08;56.68
65995;HTU21D;52764;51.036;5.852;2023-09-19T07:45:16;22.09;56.35
65995;HTU21D;52764;51.036;5.852;2023-09-19T07:47:46;22.09;56.15
65995;HTU21D;52764;51.036;5.852;2023-09-19T07:50:13;22.08;56.00
65995;HTU21D;52764;51.036;5.852;2023-09-19T07:52:40;22.13;56.15
65995;HTU21D;52764;51.036;5.852;2023-09-19T07:55:06;22.18;55.94
65995;HTU21D;52764;51.036;5.852;2023-09-19T07:57:37;22.13;55.82
65995;HTU21D;52764;51.036;5.852;2023-09-19T08:00:03;22.16;56.02
65995;HTU21D;52764;51.036;5.852;2023-09-19T08:02:37;22.32;55.42
65995;HTU21D;52764;51.036;5.852;2023-09-19T08:05:08;22.23;55.55
65995;HTU21D;52764;51.036;5.852;2023-09-19T08:07:41;22.11;55.42
65995;HTU21D;52764;51.036;5.852;2023-09-19T08:10:08;22.08;55.83
65995;HTU21D;52764;51.036;5.852;2023-09-19T08:12:39;22.02;55.56
65995;HTU21D;52764;51.036;5.852;2023-09-19T08:15:19;21.98;55.68
65995;HTU21D;52764;51.036;5.852;2023-09-19T08:17:47;22.06;55.73
65995;HTU21D;52764;51.036;5.852;2023-09-19T08:20:13;22.14;55.50
65995;HTU21D;52764;51.036;5.852;2023-09-19T08:22:50;22.09;55.46
65995;HTU21D;52764;51.036;5.852;2023-09-19T08:25:18;22.05;55.49
65995;HTU21D;52764;51.036;5.852;2023-09-19T08:27:47;22.05;55.51
65995;HTU21D;52764;51.036;5.852;2023-09-19T08:30:15;22.18;55.73
65995;HTU21D;52764;51.036;5.852;2023-09-19T08:32:41;22.25;55.33
65995;HTU21D;52764;51.036;5.852;2023-09-19T08:35:09;22.20;55.13
65995;HTU21D;52764;51.036;5.852;2023-09-19T08:37:35;22.17;55.23
65995;HTU21D;52764;51.036;5.852;2023-09-19T08:40:01;22.10;55.65
65995;HTU21D;52764;51.036;5.852;2023-09-19T08:42:27;22.19;55.87
65995;HTU21D;52764;51.036;5.852;2023-09-19T08:44:53;22.25;55.90
65995;HTU21D;52764;51.036;5.852;2023-09-19T08:47:34;22.31;55.32
65995;HTU21D;52764;51.036;5.852;2023-09-19T08:50:26;22.26;55.30
65995;HTU21D;52764;51.036;5.852;2023-09-19T08:52:56;22.22;55.19
65995;HTU21D;52764;51.036;5.852;2023-09-19T08:55:28;22.25;55.17
65995;HTU21D;52764;51.036;5.852;2023-09-19T08:58:04;22.22;55.46
65995;HTU21D;52764;51.036;5.852;2023-09-19T09:00:32;22.28;55.39
65995;HTU21D;52764;51.036;5.852;2023-09-19T09:03:02;22.38;55.08
65995;HTU21D;52764;51.036;5.852;2023-09-19T09:05:31;22.41;54.98
65995;HTU21D;52764;51.036;5.852;2023-09-19T09:07:58;22.42;54.72
65995;HTU21D;52764;51.036;5.852;2023-09-19T09:10:25;22.43;54.52
65995;HTU21D;52764;51.036;5.852;2023-09-19T09:12:53;22.40;54.46
65995;HTU21D;52764;51.036;5.852;2023-09-19T09:15:22;22.36;54.54
65995;HTU21D;52764;51.036;5.852;2023-09-19T09:17:50;22.31;54.87
65995;HTU21D;52764;51.036;5.852;2023-09-19T09:20:17;22.29;54.71
65995;HTU21D;52764;51.036;5.852;2023-09-19T09:22:54;22.22;54.57
65995;HTU21D;52764;51.036;5.852;2023-09-19T09:25:21;22.25;54.69
65995;HTU21D;52764;51.036;5.852;2023-09-19T09:28:00;22.14;54.43
65995;HTU21D;52764;51.036;5.852;2023-09-19T09:30:34;22.04;54.56
65995;HTU21D;52764;51.036;5.852;2023-09-19T09:33:11;22.06;54.94
65995;HTU21D;52764;51.036;5.852;2023-09-19T09:35:47;22.11;55.30
65995;HTU21D;52764;51.036;5.852;2023-09-19T09:38:22;22.14;55.24
65995;HTU21D;52764;51.036;5.852;2023-09-19T09:40:54;22.24;55.50
65995;HTU21D;52764;51.036;5.852;2023-09-19T09:43:36;22.33;54.99
65995;HTU21D;52764;51.036;5.852;2023-09-19T09:46:18;22.42;54.59
65995;HTU21D;52764;51.036;5.852;2023-09-19T09:48:58;22.53;54.39
65995;HTU21D;52764;51.036;5.852;2023-09-19T09:51:45;22.58;53.75
65995;HTU21D;52764;51.036;5.852;2023-09-19T09:54:29;22.55;53.07
65995;HTU21D;52764;51.036;5.852;2023-09-19T09:57:09;22.50;52.99
65995;HTU21D;52764;51.036;5.852;2023-09-19T10:02:35;22.48;53.06
65995;HTU21D;52764;51.036;5.852;2023-09-19T10:05:13;22.46;52.11
65995;HTU21D;52764;51.036;5.852;2023-09-19T10:08:10;22.40;52.25
65995;HTU21D;52764;51.036;5.852;2023-09-19T10:10:39;22.43;52.46
65995;HTU21D;52764;51.036;5.852;2023-09-19T10:13:09;22.54;52.61
65995;HTU21D;52764;51.036;5.852;2023-09-19T10:15:39;22.62;52.56
65995;HTU21D;52764;51.036;5.852;2023-09-19T10:18:11;22.70;52.56
65995;HTU21D;52764;51.036;5.852;2023-09-19T10:20:43;22.83;52.57
65995;HTU21D;52764;51.036;5.852;2023-09-19T10:23:12;22.86;52.43
65995;HTU21D;52764;51.036;5.852;2023-09-19T10:25:44;22.79;51.86
65995;HTU21D;52764;51.036;5.852;2023-09-19T10:28:14;22.71;51.89
65995;HTU21D;52764;51.036;5.852;2023-09-19T10:30:42;22.71;52.00
65995;HTU21D;52764;51.036;5.852;2023-09-19T10:33:20;22.70;51.83
65995;HTU21D;52764;51.036;5.852;2023-09-19T10:35:49;22.72;51.63
65995;HTU21D;52764;51.036;5.852;2023-09-19T10:38:23;22.70;51.55
65995;HTU21D;52764;51.036;5.852;2023-09-19T10:40:53;22.69;51.20
65995;HTU21D;52764;51.036;5.852;2023-09-19T10:43:20;22.66;51.20
65995;HTU21D;52764;51.036;5.852;2023-09-19T10:45:48;22.65;51.66
65995;HTU21D;52764;51.036;5.852;2023-09-19T10:48:18;22.65;51.32
65995;HTU21D;52764;51.036;5.852;2023-09-19T10:53:16;22.63;51.43
65995;HTU21D;52764;51.036;5.852;2023-09-19T10:55:53;22.61;51.75
65995;HTU21D;52764;51.036;5.852;2023-09-19T10:58:29;22.61;51.88
65995;HTU21D;52764;51.036;5.852;2023-09-19T11:00:56;22.62;51.86
65995;HTU21D;52764;51.036;5.852;2023-09-19T11:03:27;22.58;51.74
65995;HTU21D;52764;51.036;5.852;2023-09-19T11:11:43;22.36;51.90
65995;HTU21D;52764;51.036;5.852;2023-09-19T11:30:37;22.46;51.57
65995;HTU21D;52764;51.036;5.852;2023-09-19T11:36:16;22.57;52.26
65995;HTU21D;52764;51.036;5.852;2023-09-19T11:43:46;22.60;50.92
65995;HTU21D;52764;51.036;5.852;2023-09-19T11:46:12;22.62;51.30
65995;HTU21D;52764;51.036;5.852;2023-09-19T11:48:43;22.63;50.85
65995;HTU21D;52764;51.036;5.852;2023-09-19T11:51:14;22.53;51.15
65995;HTU21D;52764;51.036;5.852;2023-09-19T11:53:46;22.55;51.73
65995;HTU21D;52764;51.036;5.852;2023-09-19T11:56:16;22.65;51.85
65995;HTU21D;52764;51.036;5.852;2023-09-19T11:58:44;22.68;51.39
65995;HTU21D;52764;51.036;5.852;2023-09-19T12:01:13;22.68;51.14
65995;HTU21D;52764;51.036;5.852;2023-09-19T12:03:42;22.73;50.70
65995;HTU21D;52764;51.036;5.852;2023-09-19T12:06:14;22.75;51.17
65995;HTU21D;52764;51.036;5.852;2023-09-19T12:08:44;22.82;51.33
65995;HTU21D;52764;51.036;5.852;2023-09-19T12:11:13;22.86;51.17
65995;HTU21D;52764;51.036;5.852;2023-09-19T12:13:45;22.91;51.17
65995;HTU21D;52764;51.036;5.852;2023-09-19T12:16:17;22.98;50.74
65995;HTU21D;52764;51.036;5.852;2023-09-19T12:18:44;23.14;50.68
65995;HTU21D;52764;51.036;5.852;2023-09-19T12:21:31;23.31;50.53
65995;HTU21D;52764;51.036;5.852;2023-09-19T12:24:11;23.41;50.08
65995;HTU21D;52764;51.036;5.852;2023-09-19T12:26:43;23.52;50.11
65995;HTU21D;52764;51.036;5.852;2023-09-19T12:29:16;22.80;49.85
65995;HTU21D;52764;51.036;5.852;2023-09-19T12:31:56;23.84;49.55
65995;HTU21D;52764;51.036;5.852;2023-09-19T12:34:32;23.90;49.12
65995;HTU21D;52764;51.036;5.852;2023-09-19T12:39:52;24.00;48.29
65995;HTU21D;52764;51.036;5.852;2023-09-19T12:42:22;24.04;48.39
65995;HTU21D;52764;51.036;5.852;2023-09-19T12:44:50;24.03;48.32
65995;HTU21D;52764;51.036;5.852;2023-09-19T12:47:23;24.08;48.56
65995;HTU21D;52764;51.036;5.852;2023-09-19T12:52:46;24.08;47.90
65995;HTU21D;52764;51.036;5.852;2023-09-19T12:58:00;24.13;47.89
65995;HTU21D;52764;51.036;5.852;2023-09-19T13:00:32;24.05;47.76
65995;HTU21D;52764;51.036;5.852;2023-09-19T13:03:25;24.05;48.04
65995;HTU21D;52764;51.036;5.852;2023-09-19T13:05:56;24.10;48.04
65995;HTU21D;52764;51.036;5.852;2023-09-19T13:08:39;24.17;48.31
65995;HTU21D;52764;51.036;5.852;2023-09-19T13:11:13;24.28;48.47
65995;HTU21D;52764;51.036;5.852;2023-09-19T13:13:40;24.32;47.89
65995;HTU21D;52764;51.036;5.852;2023-09-19T13:16:07;24.35;48.01
65995;HTU21D;52764;51.036;5.852;2023-09-19T13:18:47;24.29;47.29
65995;HTU21D;52764;51.036;5.852;2023-09-19T13:21:16;24.20;47.18
65995;HTU21D;52764;51.036;5.852;2023-09-19T13:23:53;24.12;47.69
65995;HTU21D;52764;51.036;5.852;2023-09-19T13:26:25;24.00;48.02
65995;HTU21D;52764;51.036;5.852;2023-09-19T13:28:51;23.87;48.31
65995;HTU21D;52764;51.036;5.852;2023-09-19T13:31:17;23.83;48.36
65995;HTU21D;52764;51.036;5.852;2023-09-19T13:33:45;23.83;48.41
65995;HTU21D;52764;51.036;5.852;2023-09-19T13:36:11;23.83;48.40
65995;HTU21D;52764;51.036;5.852;2023-09-19T13:38:39;23.81;48.44
65995;HTU21D;52764;51.036;5.852;2023-09-19T13:41:13;23.85;48.42
65995;HTU21D;52764;51.036;5.852;2023-09-19T13:43:39;23.95;48.82
65995;HTU21D;52764;51.036;5.852;2023-09-19T13:46:05;24.10;48.70
65995;HTU21D;52764;51.036;5.852;2023-09-19T13:48:37;24.21;48.60
65995;HTU21D;52764;51.036;5.852;2023-09-19T13:51:04;24.20;48.28
65995;HTU21D;52764;51.036;5.852;2023-09-19T13:53:30;24.16;48.21
65995;HTU21D;52764;51.036;5.852;2023-09-19T13:55:56;24.06;46.99
65995;HTU21D;52764;51.036;5.852;2023-09-19T13:58:22;23.91;48.12
65995;HTU21D;52764;51.036;5.852;2023-09-19T14:00:48;23.87;48.92
65995;HTU21D;52764;51.036;5.852;2023-09-19T14:03:14;23.86;48.55
65995;HTU21D;52764;51.036;5.852;2023-09-19T14:05:40;23.75;48.35
65995;HTU21D;52764;51.036;5.852;2023-09-19T14:08:08;23.80;48.82
65995;HTU21D;52764;51.036;5.852;2023-09-19T14:10:33;23.77;48.41
65995;HTU21D;52764;51.036;5.852;2023-09-19T14:13:00;23.70;48.67
65995;HTU21D;52764;51.036;5.852;2023-09-19T14:15:27;23.74;48.84
65995;HTU21D;52764;51.036;5.852;2023-09-19T14:17:57;23.74;48.75
65995;HTU21D;52764;51.036;5.852;2023-09-19T14:20:25;23.71;48.60
65995;HTU21D;52764;51.036;5.852;2023-09-19T14:22:53;23.71;49.11
65995;HTU21D;52764;51.036;5.852;2023-09-19T14:25:19;23.71;48.90
65995;HTU21D;52764;51.036;5.852;2023-09-19T14:27:46;23.73;49.01
65995;HTU21D;52764;51.036;5.852;2023-09-19T14:30:13;28.25;48.96
65995;HTU21D;52764;51.036;5.852;2023-09-19T14:32:39;23.66;49.13
65995;HTU21D;52764;51.036;5.852;2023-09-19T14:35:06;23.67;49.34
65995;HTU21D;52764;51.036;5.852;2023-09-19T14:37:32;23.62;49.25
65995;HTU21D;52764;51.036;5.852;2023-09-19T14:39:58;23.53;49.46
65995;HTU21D;52764;51.036;5.852;2023-09-19T14:42:23;23.46;49.76
65995;HTU21D;52764;51.036;5.852;2023-09-19T14:44:49;23.47;49.59
65995;HTU21D;52764;51.036;5.852;2023-09-19T14:47:15;23.44;49.69
65995;HTU21D;52764;51.036;5.852;2023-09-19T14:49:42;23.39;49.91
65995;HTU21D;52764;51.036;5.852;2023-09-19T14:52:11;23.38;49.89
65995;HTU21D;52764;51.036;5.852;2023-09-19T14:54:37;23.30;49.85
65995;HTU21D;52764;51.036;5.852;2023-09-19T14:57:06;23.24;50.36
65995;HTU21D;52764;51.036;5.852;2023-09-19T14:59:35;23.21;50.76
65995;HTU21D;52764;51.036;5.852;2023-09-19T15:02:04;23.15;50.96
65995;HTU21D;52764;51.036;5.852;2023-09-19T15:04:30;23.11;50.69
65995;HTU21D;52764;51.036;5.852;2023-09-19T15:06:56;23.07;50.82
65995;HTU21D;52764;51.036;5.852;2023-09-19T15:09:23;23.03;50.85
65995;HTU21D;52764;51.036;5.852;2023-09-19T15:11:55;22.92;50.82
65995;HTU21D;52764;51.036;5.852;2023-09-19T15:14:21;22.94;51.14
65995;HTU21D;52764;51.036;5.852;2023-09-19T15:16:48;23.07;51.31
65995;HTU21D;52764;51.036;5.852;2023-09-19T15:19:14;23.24;51.36
65995;HTU21D;52764;51.036;5.852;2023-09-19T15:21:41;23.43;51.19
65995;HTU21D;52764;51.036;5.852;2023-09-19T15:24:07;23.57;50.69
65995;HTU21D;52764;51.036;5.852;2023-09-19T15:26:38;23.67;50.21
65995;HTU21D;52764;51.036;5.852;2023-09-19T15:29:09;23.67;49.82
65995;HTU21D;52764;51.036;5.852;2023-09-19T15:31:35;23.64;49.89
65995;HTU21D;52764;51.036;5.852;2023-09-19T15:34:05;23.55;50.11
65995;HTU21D;52764;51.036;5.852;2023-09-19T15:36:34;23.47;50.36
65995;HTU21D;52764;51.036;5.852;2023-09-19T15:39:03;23.38;50.50
65995;HTU21D;52764;51.036;5.852;2023-09-19T15:41:36;23.28;51.01
65995;HTU21D;52764;51.036;5.852;2023-09-19T15:44:12;23.25;51.29
65995;HTU21D;52764;51.036;5.852;2023-09-19T15:46:38;23.25;51.08
65995;HTU21D;52764;51.036;5.852;2023-09-19T15:49:04;23.30;50.95
65995;HTU21D;52764;51.036;5.852;2023-09-19T15:51:30;23.30;50.90
65995;HTU21D;52764;51.036;5.852;2023-09-19T15:53:57;23.27;50.88
65995;HTU21D;52764;51.036;5.852;2023-09-19T15:56:23;23.23;51.11
65995;HTU21D;52764;51.036;5.852;2023-09-19T15:58:54;23.17;51.21
65995;HTU21D;52764;51.036;5.852;2023-09-19T16:01:21;22.97;51.08
65995;HTU21D;52764;51.036;5.852;2023-09-19T16:03:49;23.05;51.62
65995;HTU21D;52764;51.036;5.852;2023-09-19T16:06:17;22.95;51.87
65995;HTU21D;52764;51.036;5.852;2023-09-19T16:08:48;22.85;52.07
65995;HTU21D;52764;51.036;5.852;2023-09-19T16:11:15;22.82;52.36
65995;HTU21D;52764;51.036;5.852;2023-09-19T16:13:41;22.83;52.63
65995;HTU21D;52764;51.036;5.852;2023-09-19T16:16:11;22.84;52.75
65995;HTU21D;52764;51.036;5.852;2023-09-19T16:18:47;22.82;52.56
65995;HTU21D;52764;51.036;5.852;2023-09-19T16:21:14;22.77;52.69
65995;HTU21D;52764;51.036;5.852;2023-09-19T16:23:40;22.71;52.65
65995;HTU21D;52764;51.036;5.852;2023-09-19T16:26:08;22.67;52.77
65995;HTU21D;52764;51.036;5.852;2023-09-19T16:28:39;22.71;53.04
65995;HTU21D;52764;51.036;5.852;2023-09-19T16:31:07;22.75;52.71
65995;HTU21D;52764;51.036;5.852;2023-09-19T16:33:35;22.65;52.56